createdAt,value
2018-11-13T00:00:18.798Z,30.60
2018-11-13T00:02:47.155Z,30.47
2018-11-13T00:05:15.168Z,32.57
2018-11-13T00:07:43.733Z,33.33
2018-11-13T00:10:12.574Z,33.90
2018-11-13T00:12:40.867Z,32.10
2018-11-13T00:15:08.939Z,33.33
2018-11-13T00:17:37.558Z,32.00
2018-11-13T00:20:07.247Z,32.43
2018-11-13T00:22:35.324Z,34.83
2018-11-13T00:25:03.568Z,32.77
2018-11-13T00:27:32.627Z,33.80
2018-11-13T00:30:00.926Z,31.67
2018-11-13T00:32:29.205Z,33.13
2018-11-13T00:34:57.236Z,32.17
2018-11-13T00:37:25.451Z,32.63
2018-11-13T00:39:53.614Z,32.27
2018-11-13T00:42:21.838Z,33.37
2018-11-13T00:44:49.794Z,32.63
2018-11-13T00:47:17.829Z,32.50
2018-11-13T00:49:45.814Z,30.97
2018-11-13T00:52:13.716Z,32.20
2018-11-13T00:54:41.829Z,31.73
2018-11-13T00:57:10.178Z,31.43
2018-11-13T00:59:38.245Z,30.73
2018-11-13T01:02:06.846Z,29.67
2018-11-13T01:04:34.826Z,29.73
2018-11-13T01:07:02.936Z,30.13
2018-11-13T01:09:31.075Z,30.40
2018-11-13T01:11:59.424Z,31.43
2018-11-13T01:14:27.120Z,31.53
2018-11-13T01:16:55.120Z,32.37
2018-11-13T01:19:23.148Z,31.37
2018-11-13T01:21:51.087Z,30.37
2018-11-13T01:24:19.371Z,31.23
2018-11-13T01:26:47.117Z,31.83
2018-11-13T01:29:15.191Z,33.13
2018-11-13T01:31:43.216Z,33.80
2018-11-13T01:34:11.230Z,33.57
2018-11-13T01:36:39.319Z,32.20
2018-11-13T01:39:08.978Z,31.17
2018-11-13T01:41:37.026Z,33.07
2018-11-13T01:44:05.793Z,30.53
2018-11-13T01:46:34.260Z,33.20
2018-11-13T01:49:02.729Z,34.47
2018-11-13T01:51:31.215Z,31.33
2018-11-13T01:53:59.217Z,33.83
2018-11-13T01:56:27.218Z,34.23
2018-11-13T01:58:55.244Z,33.70
2018-11-13T02:01:23.244Z,33.63
2018-11-13T02:03:51.286Z,32.77
2018-11-13T02:06:19.289Z,33.57
2018-11-13T02:08:47.283Z,32.43
2018-11-13T02:11:15.351Z,32.73
2018-11-13T02:13:43.353Z,33.57
2018-11-13T02:16:11.434Z,33.67
2018-11-13T02:18:39.388Z,33.03
2018-11-13T02:21:07.405Z,33.23
2018-11-13T02:23:35.530Z,33.70
2018-11-13T02:26:03.520Z,32.80
2018-11-13T02:28:31.508Z,33.93
2018-11-13T02:31:00.944Z,33.03
2018-11-13T02:33:29.798Z,30.80
2018-11-13T02:35:57.781Z,31.37
2018-11-13T02:38:25.760Z,32.47
2018-11-13T02:40:53.951Z,31.10
2018-11-13T02:43:21.992Z,30.57
2018-11-13T02:45:50.031Z,31.50
2018-11-13T02:48:18.056Z,30.53
2018-11-13T02:50:46.115Z,31.90
2018-11-13T02:53:14.144Z,32.20
2018-11-13T02:55:42.268Z,30.43
2018-11-13T02:58:10.275Z,32.17
2018-11-13T03:00:38.350Z,33.60
2018-11-13T03:03:06.302Z,29.97
2018-11-13T03:05:34.292Z,28.80
2018-11-13T03:08:02.330Z,30.10
2018-11-13T03:10:30.388Z,29.73
2018-11-13T03:12:58.398Z,29.90
2018-11-13T03:15:26.418Z,28.30
2018-11-13T03:17:54.389Z,29.97
2018-11-13T03:20:22.397Z,28.57
2018-11-13T03:22:50.479Z,29.00
2018-11-13T03:25:19.869Z,29.57
2018-11-13T03:27:47.973Z,27.57
2018-11-13T03:30:23.069Z,29.23
2018-11-13T03:32:51.380Z,27.77
2018-11-13T03:35:19.406Z,29.57
2018-11-13T03:37:47.443Z,29.13
2018-11-13T03:40:15.869Z,28.53
2018-11-13T03:42:44.639Z,28.30
2018-11-13T03:45:13.072Z,27.80
2018-11-13T03:47:41.143Z,28.53
2018-11-13T03:50:21.209Z,29.57
2018-11-13T03:52:49.323Z,27.37
2018-11-13T03:55:18.148Z,26.80
2018-11-13T03:57:46.894Z,28.87
2018-11-13T04:00:21.148Z,25.97
2018-11-13T04:02:49.235Z,25.97
2018-11-13T04:05:18.073Z,26.80
2018-11-13T04:07:47.462Z,27.03
2018-11-13T04:10:16.422Z,26.33
2018-11-13T04:12:44.740Z,27.10
2018-11-13T04:15:13.986Z,28.30
2018-11-13T04:17:42.038Z,25.43
2018-11-13T04:20:12.295Z,27.10
2018-11-13T04:22:40.469Z,26.33
2018-11-13T04:25:08.614Z,28.37
2018-11-13T04:27:36.719Z,27.00
2018-11-13T04:30:05.425Z,26.93
2018-11-13T04:32:33.478Z,27.80
2018-11-13T04:35:01.438Z,27.13
2018-11-13T04:37:29.533Z,27.07
2018-11-13T04:39:57.799Z,26.67
2018-11-13T04:42:25.921Z,28.60
2018-11-13T04:44:54.238Z,25.37
2018-11-13T04:47:22.406Z,27.77
2018-11-13T04:49:50.590Z,27.07
2018-11-13T04:52:18.679Z,26.03
2018-11-13T04:54:46.755Z,27.43
2018-11-13T04:57:14.777Z,25.17
2018-11-13T04:59:42.821Z,25.77
2018-11-13T05:02:10.926Z,26.60
2018-11-13T05:04:39.183Z,26.03
2018-11-13T05:07:07.538Z,26.60
2018-11-13T05:09:35.979Z,26.37
2018-11-13T05:12:04.507Z,25.90
2018-11-13T05:14:32.786Z,25.10
2018-11-13T05:17:01.278Z,24.57
2018-11-13T05:19:29.949Z,24.53
2018-11-13T05:21:58.659Z,25.03
2018-11-13T05:24:27.779Z,26.17
2018-11-13T05:26:56.595Z,24.87
2018-11-13T05:29:25.421Z,25.27
2018-11-13T05:31:53.973Z,24.93
2018-11-13T05:34:37.831Z,26.63
2018-11-13T05:37:06.599Z,24.77
2018-11-13T05:39:35.322Z,24.87
2018-11-13T05:42:03.798Z,24.67
2018-11-13T05:44:32.824Z,22.63
2018-11-13T05:47:08.800Z,22.37
2018-11-13T05:49:37.420Z,24.30
2018-11-13T05:52:06.675Z,23.83
2018-11-13T05:54:35.521Z,23.77
2018-11-13T05:57:03.939Z,22.83
2018-11-13T05:59:38.477Z,22.97
2018-11-13T06:02:07.299Z,21.70
2018-11-13T06:04:43.167Z,21.70
2018-11-13T06:07:35.822Z,21.83
2018-11-13T06:10:06.560Z,21.13
2018-11-13T06:12:35.445Z,20.00
2018-11-13T06:15:04.715Z,22.20
2018-11-13T06:17:37.766Z,22.60
2018-11-13T06:20:08.101Z,23.50
2018-11-13T06:22:36.568Z,22.00
2018-11-13T06:25:06.107Z,23.43
2018-11-13T06:27:34.726Z,17.80
2018-11-13T06:30:03.270Z,20.57
2018-11-13T06:32:32.080Z,20.33
2018-11-13T06:35:00.942Z,18.93
2018-11-13T06:37:29.448Z,16.10
2018-11-13T06:39:58.064Z,20.60
2018-11-13T06:42:26.618Z,19.67
2018-11-13T06:44:55.320Z,19.00
2018-11-13T06:47:23.998Z,18.20
2018-11-13T06:49:52.559Z,19.63
2018-11-13T06:52:21.024Z,19.93
2018-11-13T06:55:09.726Z,18.07
2018-11-13T06:57:38.516Z,18.53
2018-11-13T07:00:08.905Z,18.27
2018-11-13T07:02:38.210Z,17.87
2018-11-13T07:05:10.432Z,17.53
2018-11-13T07:07:39.019Z,17.17
2018-11-13T07:10:08.868Z,16.97
2018-11-13T07:12:37.498Z,17.43
2018-11-13T07:15:07.990Z,15.90
2018-11-13T07:17:37.167Z,16.33
2018-11-13T07:20:08.001Z,13.77
2018-11-13T07:22:36.568Z,15.00
2018-11-13T07:25:05.703Z,14.93
2018-11-13T07:27:34.194Z,15.60
2018-11-13T07:30:02.679Z,12.10
2018-11-13T07:32:31.417Z,13.93
2018-11-13T07:35:00.120Z,14.33
2018-11-13T07:37:28.619Z,14.97
2018-11-13T07:39:57.210Z,13.33
2018-11-13T07:42:26.000Z,13.83
2018-11-13T07:44:54.642Z,12.63
2018-11-13T07:47:23.392Z,10.80
2018-11-13T07:49:52.120Z,11.90
2018-11-13T07:52:20.716Z,12.00
2018-11-13T07:54:49.239Z,10.97
2018-11-13T07:57:17.879Z,10.37
2018-11-13T07:59:46.508Z,10.10
2018-11-13T08:02:15.242Z,9.93
2018-11-13T08:04:43.838Z,10.47
2018-11-13T08:07:12.680Z,9.80
2018-11-13T08:09:41.947Z,7.87
2018-11-13T08:12:10.638Z,9.13
2018-11-13T08:14:39.446Z,8.80
2018-11-13T08:17:08.079Z,8.60
2018-11-13T08:19:36.709Z,7.77
2018-11-13T08:22:05.750Z,8.50
2018-11-13T08:24:34.333Z,7.00
2018-11-13T08:27:03.041Z,6.20
2018-11-13T08:29:31.469Z,6.60
2018-11-13T08:32:00.066Z,6.73
2018-11-13T08:34:28.514Z,6.73
2018-11-13T08:36:57.905Z,6.07
2018-11-13T08:39:26.499Z,5.50
2018-11-13T08:41:55.065Z,6.07
2018-11-13T08:44:24.055Z,5.30
2018-11-13T08:46:52.598Z,5.87
2018-11-13T08:49:21.163Z,6.03
2018-11-13T08:51:50.104Z,6.33
2018-11-13T08:54:18.709Z,6.83
2018-11-13T08:56:47.259Z,6.20
2018-11-13T08:59:16.087Z,5.53
2018-11-13T09:01:44.488Z,5.33
2018-11-13T09:04:12.859Z,5.10
2018-11-13T09:06:41.479Z,5.17
2018-11-13T09:09:12.168Z,6.50
2018-11-13T09:11:41.278Z,4.87
2018-11-13T09:14:10.266Z,4.93
2018-11-13T09:16:38.688Z,4.90
2018-11-13T09:19:07.521Z,4.47
2018-11-13T09:21:36.172Z,4.83
2018-11-13T09:24:04.759Z,4.93
2018-11-13T09:26:33.250Z,4.47
2018-11-13T09:29:01.618Z,4.90
2018-11-13T09:31:30.211Z,4.97
2018-11-13T09:33:58.639Z,4.63
2018-11-13T09:36:27.079Z,3.77
2018-11-13T09:38:55.696Z,5.20
2018-11-13T09:41:24.138Z,4.60
2018-11-13T09:43:52.619Z,4.93
2018-11-13T09:46:21.115Z,5.10
2018-11-13T09:48:49.585Z,5.13
2018-11-13T09:51:18.320Z,4.97
2018-11-13T09:53:47.165Z,4.60
2018-11-13T09:56:15.518Z,4.47
2018-11-13T09:58:44.135Z,5.03
2018-11-13T10:01:12.715Z,4.73
2018-11-13T10:03:41.741Z,5.00
2018-11-13T10:06:11.841Z,4.60
2018-11-13T10:08:40.487Z,4.47
2018-11-13T10:11:08.978Z,4.40
2018-11-13T10:13:37.440Z,4.43
2018-11-13T10:16:05.879Z,4.67
2018-11-13T10:18:34.733Z,5.27
2018-11-13T10:21:03.225Z,4.87
2018-11-13T10:23:31.753Z,4.47
2018-11-13T10:26:00.235Z,4.70
2018-11-13T10:28:28.902Z,4.50
2018-11-13T10:30:57.362Z,4.90
2018-11-13T10:33:26.108Z,4.87
2018-11-13T10:35:54.440Z,4.13
2018-11-13T10:38:23.164Z,3.83
2018-11-13T10:40:51.781Z,4.73
2018-11-13T10:43:20.279Z,4.37
2018-11-13T10:45:48.766Z,4.60
2018-11-13T10:48:17.300Z,4.83
2018-11-13T10:50:45.822Z,4.60
2018-11-13T10:53:14.340Z,4.20
2018-11-13T10:55:42.779Z,3.83
2018-11-13T10:58:11.221Z,3.87
2018-11-13T11:00:45.262Z,4.20
2018-11-13T11:03:19.158Z,4.00
2018-11-13T11:05:47.678Z,4.10
2018-11-13T11:08:16.276Z,4.70
2018-11-13T11:10:44.901Z,3.90
2018-11-13T11:13:13.465Z,4.43
2018-11-13T11:15:41.960Z,4.20
2018-11-13T11:18:10.602Z,4.60
2018-11-13T11:20:39.220Z,4.40
2018-11-13T11:23:07.885Z,3.80
2018-11-13T11:25:36.459Z,3.40
2018-11-13T11:28:05.210Z,3.70
2018-11-13T11:30:33.725Z,3.23
2018-11-13T11:33:02.240Z,3.20
2018-11-13T11:35:30.698Z,3.20
2018-11-13T11:37:59.386Z,3.60
2018-11-13T11:40:28.086Z,3.10
2018-11-13T11:42:56.812Z,2.70
2018-11-13T11:45:25.558Z,3.00
2018-11-13T11:47:54.256Z,2.37
2018-11-13T11:50:37.016Z,2.60
2018-11-13T11:53:05.933Z,2.13
2018-11-13T11:55:34.558Z,2.40
2018-11-13T11:58:03.248Z,2.07
2018-11-13T12:00:34.056Z,1.90
2018-11-13T12:03:02.699Z,1.77
2018-11-13T12:05:31.344Z,2.17
2018-11-13T12:07:59.930Z,2.10
2018-11-13T12:10:28.585Z,1.40
2018-11-13T12:12:57.049Z,2.60
2018-11-13T12:15:25.887Z,1.87
2018-11-13T12:17:55.160Z,2.47
2018-11-13T12:20:23.878Z,1.93
2018-11-13T12:22:53.892Z,1.50
2018-11-13T12:25:23.149Z,1.90
2018-11-13T12:27:57.119Z,2.00
2018-11-13T12:30:26.460Z,1.37
2018-11-13T12:32:55.041Z,2.60
2018-11-13T12:35:23.623Z,2.60
2018-11-13T12:37:53.968Z,2.07
2018-11-13T12:40:23.849Z,2.77
2018-11-13T12:42:52.786Z,2.87
2018-11-13T12:45:21.425Z,3.57
2018-11-13T12:47:50.400Z,3.10
2018-11-13T12:50:20.062Z,3.30
2018-11-13T12:56:03.416Z,3.80
2018-11-13T12:58:35.221Z,3.80
2018-11-13T13:01:09.272Z,4.60
2018-11-13T13:03:37.894Z,4.27
2018-11-13T13:06:06.801Z,4.87
2018-11-13T13:08:36.503Z,4.47
2018-11-13T13:11:07.131Z,4.63
2018-11-13T13:13:41.506Z,4.77
2018-11-13T13:16:10.346Z,5.00
2018-11-13T13:18:42.806Z,5.13
2018-11-13T13:21:11.569Z,4.77
2018-11-13T13:23:40.507Z,4.37
2018-11-13T13:26:11.103Z,4.40
2018-11-13T13:28:39.950Z,4.00
2018-11-13T13:31:09.489Z,4.23
2018-11-13T13:33:38.082Z,4.43
2018-11-13T13:36:06.722Z,4.10
2018-11-13T13:38:40.634Z,4.27
2018-11-13T13:41:10.311Z,3.93
2018-11-13T13:46:14.611Z,4.07
2018-11-13T13:48:43.462Z,4.07
2018-11-13T13:51:12.322Z,3.50
2018-11-13T13:53:41.113Z,3.10
2018-11-13T13:56:09.650Z,3.27
2018-11-13T13:58:38.348Z,3.43
2018-11-13T14:01:07.084Z,3.47
2018-11-13T14:03:35.649Z,3.23
2018-11-13T14:06:04.461Z,3.70
2018-11-13T14:08:34.966Z,3.30
2018-11-13T14:11:03.958Z,3.33
2018-11-13T14:13:33.147Z,3.47
2018-11-13T14:17:10.579Z,2.83
2018-11-13T14:19:39.829Z,2.57
2018-11-13T14:22:09.024Z,2.90
2018-11-13T14:24:38.169Z,2.77
2018-11-13T14:27:07.228Z,2.67
2018-11-13T14:29:36.989Z,2.90
2018-11-13T14:32:05.507Z,3.30
2018-11-13T14:34:34.284Z,2.70
2018-11-13T14:37:03.327Z,3.00
2018-11-13T14:39:32.007Z,3.23
2018-11-13T14:42:00.889Z,3.07
2018-11-13T14:44:29.424Z,3.03
2018-11-13T14:49:58.277Z,2.50
2018-11-13T14:52:27.028Z,2.43
2018-11-13T14:54:55.679Z,3.00
2018-11-13T14:57:24.344Z,2.10
2018-11-13T14:59:53.104Z,2.37
2018-11-13T15:02:21.697Z,2.00
2018-11-13T15:04:50.270Z,2.73
2018-11-13T15:07:19.075Z,2.50
2018-11-13T15:09:47.462Z,2.40
2018-11-13T15:12:16.345Z,2.30
2018-11-13T15:14:45.699Z,2.40
2018-11-13T15:17:14.491Z,2.57
2018-11-13T15:19:47.247Z,2.00
2018-11-13T15:22:15.890Z,2.10
2018-11-13T15:24:44.440Z,2.00
2018-11-13T15:27:13.131Z,2.20
2018-11-13T15:29:41.723Z,2.00
2018-11-13T15:32:10.430Z,2.47
2018-11-13T15:34:39.649Z,2.07
2018-11-13T15:37:09.490Z,2.17
2018-11-13T15:39:37.945Z,2.50
2018-11-13T15:42:07.359Z,2.60
2018-11-13T15:44:35.912Z,2.47
2018-11-13T15:47:05.076Z,2.50
2018-11-13T15:49:33.811Z,2.30
2018-11-13T15:55:19.540Z,2.90
2018-11-13T15:58:03.712Z,2.47
2018-11-13T16:00:34.432Z,2.20
2018-11-13T16:03:05.127Z,2.40
2018-11-13T16:05:46.604Z,2.80
2018-11-13T16:08:15.450Z,2.63
2018-11-13T16:10:44.003Z,3.33
2018-11-13T16:13:12.563Z,3.23
2018-11-13T16:15:41.442Z,2.57
2018-11-13T16:18:11.995Z,2.10
2018-11-13T16:20:40.486Z,2.43
2018-11-13T16:23:09.075Z,2.57
2018-11-13T16:25:37.587Z,2.83
2018-11-13T16:28:06.235Z,2.60
2018-11-13T16:30:36.113Z,2.60
2018-11-13T16:33:04.741Z,2.83
2018-11-13T16:35:33.454Z,3.03
2018-11-13T16:38:03.301Z,2.27
2018-11-13T16:40:32.803Z,2.70
2018-11-13T16:43:02.053Z,2.70
2018-11-13T16:45:32.110Z,2.57
2018-11-13T16:48:03.140Z,2.73
2018-11-13T16:50:40.577Z,2.40
2018-11-13T16:53:09.114Z,1.97
2018-11-13T16:55:43.010Z,2.30
2018-11-13T16:58:12.937Z,2.67
2018-11-13T17:00:41.588Z,2.80
2018-11-13T17:03:10.331Z,2.40
2018-11-13T17:05:38.867Z,2.30
2018-11-13T17:08:07.339Z,2.70
2018-11-13T17:10:39.231Z,2.20
2018-11-13T17:13:07.950Z,2.40
2018-11-13T17:15:36.739Z,2.67
2018-11-13T17:18:06.674Z,2.80
2018-11-13T17:20:35.629Z,2.70
2018-11-13T17:23:04.460Z,2.97
2018-11-13T17:25:34.474Z,2.50
2018-11-13T17:28:02.993Z,2.63
2018-11-13T17:30:33.051Z,2.47
2018-11-13T17:33:02.783Z,2.53
2018-11-13T17:35:32.066Z,3.03
2018-11-13T17:38:01.361Z,2.70
2018-11-13T17:40:31.159Z,3.23
2018-11-13T17:43:00.858Z,2.80
2018-11-13T17:45:31.383Z,3.13
2018-11-13T17:47:59.981Z,2.87
2018-11-13T17:50:31.938Z,3.00
2018-11-13T17:53:00.577Z,3.43
2018-11-13T17:55:29.240Z,2.90
2018-11-13T17:57:59.355Z,2.90
2018-11-13T18:00:30.125Z,3.33
2018-11-13T18:02:59.274Z,3.23
2018-11-13T18:05:28.508Z,3.17
2018-11-13T18:07:57.899Z,3.87
2018-11-13T18:10:27.377Z,3.73
2018-11-13T18:12:55.938Z,4.30
2018-11-13T18:15:25.880Z,3.90
2018-11-13T18:17:54.477Z,4.00
2018-11-13T18:20:30.017Z,4.17
2018-11-13T18:22:58.581Z,4.10
2018-11-13T18:25:27.598Z,3.87
2018-11-13T18:27:57.303Z,4.37
2018-11-13T18:30:29.923Z,4.40
2018-11-13T18:32:59.215Z,4.40
2018-11-13T18:35:29.106Z,4.37
2018-11-13T18:37:58.573Z,4.77
2018-11-13T18:40:27.345Z,4.80
2018-11-13T18:42:57.088Z,3.37
2018-11-13T18:45:28.974Z,4.60
2018-11-13T18:47:57.532Z,4.73
2018-11-13T18:50:27.424Z,4.43
2018-11-13T18:52:55.984Z,4.23
2018-11-13T18:55:24.907Z,4.27
2018-11-13T18:57:53.523Z,4.67
2018-11-13T19:00:24.306Z,4.57
2018-11-13T19:02:53.029Z,4.60
2018-11-13T19:05:22.129Z,4.47
2018-11-13T19:07:50.871Z,4.93
2018-11-13T19:10:29.170Z,4.93
2018-11-13T19:12:58.940Z,4.30
2018-11-13T19:15:29.032Z,4.33
2018-11-13T19:17:57.566Z,3.80
2018-11-13T19:20:26.886Z,3.60
2018-11-13T19:22:55.881Z,4.53
2018-11-13T19:25:26.924Z,5.27
2018-11-13T19:27:56.517Z,4.33
2018-11-13T19:30:25.423Z,4.60
2018-11-13T19:32:54.505Z,4.47
2018-11-13T19:35:23.649Z,4.80
2018-11-13T19:37:53.067Z,4.20
2018-11-13T19:40:24.140Z,4.03
2018-11-13T19:42:54.128Z,4.87
2018-11-13T19:45:23.397Z,5.03
2018-11-13T19:47:53.021Z,5.07
2018-11-13T19:50:23.602Z,4.63
2018-11-13T19:52:52.637Z,4.90
2018-11-13T19:55:22.019Z,4.47
2018-11-13T19:57:51.345Z,5.47
2018-11-13T20:00:23.644Z,5.60
2018-11-13T20:02:53.307Z,5.50
2018-11-13T20:05:23.223Z,5.50
2018-11-13T20:07:52.188Z,5.27
2018-11-13T20:10:22.297Z,6.00
2018-11-13T20:12:52.054Z,4.50
2018-11-13T20:15:21.733Z,5.47
2018-11-13T20:17:50.670Z,5.40
2018-11-13T20:20:21.730Z,5.17
2018-11-13T20:22:51.457Z,5.70
2018-11-13T20:25:22.073Z,5.13
2018-11-13T20:27:51.343Z,5.77
2018-11-13T20:30:21.862Z,5.80
2018-11-13T20:32:50.874Z,5.20
2018-11-13T20:35:19.614Z,5.53
2018-11-13T20:37:49.466Z,5.43
2018-11-13T20:40:21.441Z,5.87
2018-11-13T20:42:51.561Z,5.53
2018-11-13T20:45:20.613Z,5.70
2018-11-13T20:47:49.646Z,5.10
2018-11-13T20:50:20.733Z,6.07
2018-11-13T20:52:49.475Z,5.47
2018-11-13T20:55:18.183Z,6.70
2018-11-13T20:57:46.796Z,6.10
2018-11-13T21:00:18.573Z,5.97
2018-11-13T21:02:47.758Z,5.93
2018-11-13T21:05:16.409Z,5.40
2018-11-13T21:07:46.445Z,5.63
2018-11-13T21:10:16.346Z,6.47
2018-11-13T21:12:45.455Z,6.17
2018-11-13T21:15:15.673Z,7.40
2018-11-13T21:17:44.313Z,5.50
2018-11-13T21:20:14.438Z,6.37
2018-11-13T21:22:42.746Z,5.93
2018-11-13T21:25:12.716Z,6.80
2018-11-13T21:27:41.405Z,6.53
2018-11-13T21:30:13.176Z,6.73
2018-11-13T21:32:41.913Z,6.07
2018-11-13T21:35:11.237Z,6.40
2018-11-13T21:37:40.042Z,5.97
2018-11-13T21:40:09.445Z,6.07
2018-11-13T21:42:37.688Z,7.40
2018-11-13T21:45:07.203Z,8.37
2018-11-13T21:47:35.341Z,7.67
2018-11-13T21:50:04.033Z,7.47
2018-11-13T21:52:32.051Z,7.73
2018-11-13T21:55:00.289Z,8.40
2018-11-13T21:57:28.474Z,8.10
2018-11-13T21:59:56.664Z,8.43
2018-11-13T22:02:24.971Z,7.93
2018-11-13T22:04:53.228Z,7.80
2018-11-13T22:07:21.675Z,8.13
2018-11-13T22:09:49.924Z,7.83
2018-11-13T22:12:18.006Z,8.10
2018-11-13T22:14:46.142Z,9.93
2018-11-13T22:17:14.378Z,8.77
2018-11-13T22:19:42.746Z,9.17
2018-11-13T22:22:10.943Z,7.90
2018-11-13T22:24:39.040Z,8.43
2018-11-13T22:27:07.446Z,9.03
2018-11-13T22:29:35.907Z,7.60
2018-11-13T22:32:03.993Z,8.03
2018-11-13T22:34:32.294Z,8.30
2018-11-13T22:37:00.514Z,7.23
2018-11-13T22:39:28.646Z,7.93
2018-11-13T22:41:56.989Z,9.47
2018-11-13T22:44:25.145Z,9.63
2018-11-13T22:46:53.214Z,8.83
2018-11-13T22:49:21.300Z,7.80
2018-11-13T22:51:49.491Z,10.00
2018-11-13T22:54:17.539Z,7.83
2018-11-13T22:56:45.705Z,7.33
2018-11-13T22:59:13.677Z,8.50
2018-11-13T23:01:41.853Z,8.73
2018-11-13T23:04:09.891Z,8.50
2018-11-13T23:06:37.902Z,9.17
2018-11-13T23:09:09.174Z,10.27
2018-11-13T23:11:37.322Z,9.30
2018-11-13T23:14:05.917Z,9.40
2018-11-13T23:16:34.001Z,9.87
2018-11-13T23:19:01.978Z,9.63
2018-11-13T23:21:30.199Z,9.80
2018-11-13T23:23:58.230Z,8.83
2018-11-13T23:26:26.377Z,10.27
2018-11-13T23:28:54.347Z,9.20
2018-11-13T23:31:22.429Z,8.60
2018-11-13T23:33:50.409Z,10.30
2018-11-13T23:36:18.547Z,8.87
2018-11-13T23:38:46.553Z,8.90
2018-11-13T23:41:14.584Z,8.47
2018-11-13T23:43:42.532Z,9.77
2018-11-13T23:46:10.554Z,9.00
2018-11-13T23:48:38.728Z,8.03
2018-11-13T23:51:06.739Z,8.20
2018-11-13T23:53:34.811Z,7.80
2018-11-13T23:56:02.996Z,9.67
2018-11-13T23:58:31.090Z,8.07
